Albuquerque, NM

12:03 PM MST on March 02, 2015 (GMT -0700)
UNM Area West | Change Station
CLOSE
Current Station
Personal Weather Station
Location: Albuquerque, NM
Elevation: 5133 ft
Nearby Weather Stations

Elev 5133 ft 35.09 °N, 106.63 °W | Updated 8 minutes ago

Partly Cloudy
Partly Cloudy
50.6 °F
Feels Like 50.6 °F
N
1.0
Wind Variable Wind from North
Gusts 3.0 mph

Today
High -- | Low -- °F
--% Chance of Precip.
Yesterday
High -- | Low -- °F
Precip. -- in
6:35 AM 6:02 PM
Waxing Gibbous, 92% visible
Pressure 29.88 in
Visibility 10.0 miles
Clouds Mostly Cloudy 8500 ft
Mostly Cloudy 18000 ft
Overcast 25000 ft
Dew Point 34 °F
Humidity 54%
Rainfall 0.00 in
Snow Depth Not available.
UV 2 out of 12
Pollen 6.60 out of 12
Air Quality Not available.
Flu Activity Not available.
METAR KABQ 021852Z 36007KT 10SM BKN085 BKN180 OVC250 10/01 A2998 RMK AO2 SLP116 T01000006

More Conditions Fewer Conditions

Pressure 29.88 in
Visibility 10.0 miles
Clouds Mostly Cloudy 8500 ft
Mostly Cloudy 18000 ft
Overcast 25000 ft
Dew Point 34 °F
Humidity 54%
Rainfall 0.00 in
Snow Depth Not available.
UV 2 out of 12
Pollen 6.60 out of 12
Air Quality Not available.
Flu Activity Not available.
METAR KABQ 021852Z 36007KT 10SM BKN085 BKN180 OVC250 10/01 A2998 RMK AO2 SLP116 T01000006

More Conditions Fewer Conditions

10-Day Weather Forecast

Almanac

Astronomy

Mar. 02, 2015 Rise Set
Actual Time
Civil Twilight
Nautical Twilight
Astronomical Twilight
Moon
Length of Visible Light
Length of Day
Tomorrow will be .
, % of the Moon is Illuminated

Today's Extremes

State Highs State Lows

Community

WunderPhotos

Upload Photos

1,801,913 photos uploaded!

WunderBlogs® & News

Nearby

Air Quality

  Air Quality AQ Index Pollutant
Not available.

Snow Depth

Station Depth Elevation

Earthquake Activity

City Distance Mag. Time & Date
Minimum magnitude displayed is 2.5.

Coastal Water Temperatures

Place Temperature

Nearby Weather Stations